AGROMETEOROLOŠKI PORTAL

vinorodna pokrajina

Temelj dobrega kmetovanja

Pregled podatkov za lokacijo Trebnje DRSI, meteorološka postaja 18

Pregled senzorjev na lokaciji

ID Ime Zadnja
vrednost
Datum in čas
meritve
(lokalni čas)
Tip
senzorja
6170 Relativna zračna vlaga (2 m) (% RH) 85 % RH 30.9.2022 11:00 DRSI
6169 Temperatura (2 m) (°C) 14,2 °C 30.9.2022 11:00 DRSI
6172 Smer vetra (2 m) (°) 282 ° 30.9.2022 11:00 DRSI
6171 Hitrost vetra (2 m) (km/h) 2 km/h 30.9.2022 11:00 DRSI

Pregled podatkov zadnjih 24 ur

Zap.
št.
Datum in čas
(lokalni čas)
Trebnje DRSI
Relativna
zračna
vlaga
(2
m)
Temperatura
(2
m)
Smer
vetra
(2
m)
Hitrost
vetra
(2
m)
1 30.9.2022 11:00 84,7 14,2 282,2 1,6
2 30.9.2022 10:30 87 13,2 320,2 3,7
3 30.9.2022 10:00 88,3 12,6 263,1 1,2
4 30.9.2022 09:30 89,7 12,3 119,4 1,1
5 30.9.2022 09:00 90,3 11,7 13,1 1,1
6 30.9.2022 08:30 91 11,3 152 0,8
7 30.9.2022 08:00 91 11 108 1
8 30.9.2022 07:30 91 11 54,4 1
9 30.9.2022 07:00 91 10,9 163,2 1,3
10 30.9.2022 06:30 90,3 11,1 321,3 1,1
11 30.9.2022 06:00 90,7 11 296,3 1,9
12 30.9.2022 05:30 90,7 11 16,4 1,1
13 30.9.2022 05:00 90,7 11 96,8 1,4
14 30.9.2022 04:30 90 11,2 151,9 1,3
15 30.9.2022 04:00 90 11,5 262,7 2,8
16 30.9.2022 03:30 90,7 11,1 301,8 1,8
17 30.9.2022 03:00 91 10,9 161,4 1,3
18 30.9.2022 02:30 91 10,9 144,5 1
19 30.9.2022 02:00 90,3 11,2 153,4 0,8
20 30.9.2022 01:30 90,7 11,1 30,2 1,4
21 30.9.2022 01:00 90,7 11 178,5 0,7
22 30.9.2022 00:30 91 10,9 202,4 1
23 30.9.2022 00:00 90 11,1 247,4 1,4
24 29.9.2022 23:30 89,7 11,2 236,9 1,8
25 29.9.2022 23:00 89,3 11,3 298 2,9
26 29.9.2022 22:30 90 11,2 114,2 1,4
27 29.9.2022 22:00 90,7 11 124 1,1
28 29.9.2022 21:30 90 10,9 251,6 0,7
29 29.9.2022 21:00 89,3 11,2 272,7 1,8
30 29.9.2022 20:30 89,3 11,4 279,7 2,8
31 29.9.2022 20:00 90,3 11,3 166,4 1,2
32 29.9.2022 19:30 89 11,6 123 1,6
33 29.9.2022 19:00 89 11,7 293,3 3,1
34 29.9.2022 18:30 89 11,8 242,6 1,9
35 29.9.2022 18:00 89 11,9 166 2,2
36 29.9.2022 17:30 88,7 12,1 251,9 1,4
37 29.9.2022 17:00 89 12,2 273,6 1,2
38 29.9.2022 16:30 88 12,4 172,9 1,4
39 29.9.2022 16:00 88 12,3 180,7 1,1
40 29.9.2022 15:30 88,7 12,3 196,3 1,7
41 29.9.2022 15:00 88 12,3 179,9 1,4
42 29.9.2022 14:30 89,3 12,2 205,1 2
43 29.9.2022 14:00 89 11,7 282,3 3
44 29.9.2022 13:30 88,7 11,7 267,4 5,2
45 29.9.2022 13:00 88,7 12 239,4 2,8
46 29.9.2022 12:30 88,7 12,4 245,3 3,7